sensor_id;sensor_type;location;lat;lon;timestamp;pressure;altitude;pressure_sealevel;temperature;humidity
47811;BME280;33575;52.600;7.318;2023-03-04T00:02:13;102305.11;;;4.38;88.17
47811;BME280;33575;52.600;7.318;2023-03-04T00:04:44;102305.65;;;4.38;88.22
47811;BME280;33575;52.600;7.318;2023-03-04T00:07:15;102311.28;;;4.28;88.60
47811;BME280;33575;52.600;7.318;2023-03-04T00:09:45;102310.79;;;4.02;89.83
47811;BME280;33575;52.600;7.318;2023-03-04T00:12:16;102311.05;;;3.91;90.46
47811;BME280;33575;52.600;7.318;2023-03-04T00:14:47;102309.28;;;4.10;89.42
47811;BME280;33575;52.600;7.318;2023-03-04T00:17:18;102310.76;;;3.98;90.30
47811;BME280;33575;52.600;7.318;2023-03-04T00:19:49;102304.48;;;4.20;89.21
47811;BME280;33575;52.600;7.318;2023-03-04T00:22:19;102304.95;;;3.94;89.14
47811;BME280;33575;52.600;7.318;2023-03-04T00:24:50;102303.52;;;3.84;89.75
47811;BME280;33575;52.600;7.318;2023-03-04T00:27:20;102304.57;;;3.93;89.52
47811;BME280;33575;52.600;7.318;2023-03-04T00:29:50;102301.29;;;3.97;89.45
47811;BME280;33575;52.600;7.318;2023-03-04T00:32:21;102300.99;;;4.08;89.48
47811;BME280;33575;52.600;7.318;2023-03-04T00:34:52;102302.24;;;4.16;89.01
47811;BME280;33575;52.600;7.318;2023-03-04T00:37:23;102300.41;;;4.37;88.29
47811;BME280;33575;52.600;7.318;2023-03-04T00:39:53;102301.33;;;4.37;88.51
47811;BME280;33575;52.600;7.318;2023-03-04T00:42:24;102300.98;;;4.27;88.17
47811;BME280;33575;52.600;7.318;2023-03-04T00:44:55;102301.79;;;3.86;89.03
47811;BME280;33575;52.600;7.318;2023-03-04T00:47:25;102297.86;;;3.95;88.84
47811;BME280;33575;52.600;7.318;2023-03-04T00:49:56;102292.68;;;4.18;87.89
47811;BME280;33575;52.600;7.318;2023-03-04T00:52:27;102297.99;;;3.91;88.25
47811;BME280;33575;52.600;7.318;2023-03-04T00:54:57;102293.23;;;4.22;87.46
47811;BME280;33575;52.600;7.318;2023-03-04T00:57:28;102296.00;;;4.11;87.83
47811;BME280;33575;52.600;7.318;2023-03-04T00:59:59;102292.93;;;4.19;87.82
47811;BME280;33575;52.600;7.318;2023-03-04T01:02:29;102293.67;;;4.36;87.14
47811;BME280;33575;52.600;7.318;2023-03-04T01:05:00;102289.10;;;3.96;88.29
47811;BME280;33575;52.600;7.318;2023-03-04T01:07:31;102290.47;;;3.96;88.03
47811;BME280;33575;52.600;7.318;2023-03-04T01:10:02;102291.01;;;4.02;88.03
47811;BME280;33575;52.600;7.318;2023-03-04T01:12:33;102290.75;;;3.99;88.15
47811;BME280;33575;52.600;7.318;2023-03-04T01:15:04;102288.27;;;4.24;87.63
47811;BME280;33575;52.600;7.318;2023-03-04T01:17:34;102285.90;;;4.36;87.20
47811;BME280;33575;52.600;7.318;2023-03-04T01:20:07;102281.06;;;4.55;86.55
47811;BME280;33575;52.600;7.318;2023-03-04T01:22:36;102281.60;;;4.52;86.56
47811;BME280;33575;52.600;7.318;2023-03-04T01:25:08;102278.02;;;4.42;86.87
47811;BME280;33575;52.600;7.318;2023-03-04T01:27:37;102278.27;;;4.37;87.26
47811;BME280;33575;52.600;7.318;2023-03-04T01:30:09;102270.19;;;4.49;86.64
47811;BME280;33575;52.600;7.318;2023-03-04T01:32:38;102267.08;;;4.60;86.55
47811;BME280;33575;52.600;7.318;2023-03-04T01:35:09;102265.43;;;4.51;86.89
47811;BME280;33575;52.600;7.318;2023-03-04T01:37:40;102265.04;;;4.69;86.30
47811;BME280;33575;52.600;7.318;2023-03-04T01:40:12;102261.97;;;4.68;85.89
47811;BME280;33575;52.600;7.318;2023-03-04T01:42:42;102260.98;;;4.63;86.38
47811;BME280;33575;52.600;7.318;2023-03-04T01:45:14;102260.31;;;4.65;86.32
47811;BME280;33575;52.600;7.318;2023-03-04T01:47:44;102253.49;;;4.80;86.13
47811;BME280;33575;52.600;7.318;2023-03-04T01:50:19;102252.72;;;4.41;87.03
47811;BME280;33575;52.600;7.318;2023-03-04T01:52:44;102246.76;;;4.54;86.42
47811;BME280;33575;52.600;7.318;2023-03-04T01:55:16;102244.79;;;4.54;86.80
47811;BME280;33575;52.600;7.318;2023-03-04T01:57:47;102246.54;;;4.59;86.50
47811;BME280;33575;52.600;7.318;2023-03-04T02:00:23;102244.59;;;4.55;86.58
47811;BME280;33575;52.600;7.318;2023-03-04T02:02:49;102242.98;;;4.55;86.87
47811;BME280;33575;52.600;7.318;2023-03-04T02:05:18;102238.44;;;4.47;87.03
47811;BME280;33575;52.600;7.318;2023-03-04T02:07:49;102231.82;;;4.40;87.45
47811;BME280;33575;52.600;7.318;2023-03-04T02:10:20;102228.32;;;4.10;88.43
47811;BME280;33575;52.600;7.318;2023-03-04T02:12:50;102226.19;;;4.46;87.01
47811;BME280;33575;52.600;7.318;2023-03-04T02:15:21;102227.84;;;4.38;88.34
47811;BME280;33575;52.600;7.318;2023-03-04T02:17:52;102226.55;;;4.47;87.91
47811;BME280;33575;52.600;7.318;2023-03-04T02:20:31;102224.27;;;4.29;87.00
47811;BME280;33575;52.600;7.318;2023-03-04T02:23:00;102224.01;;;4.29;87.62
47811;BME280;33575;52.600;7.318;2023-03-04T02:25:29;102223.07;;;4.47;85.98
47811;BME280;33575;52.600;7.318;2023-03-04T02:27:55;102220.26;;;4.55;86.36
47811;BME280;33575;52.600;7.318;2023-03-04T02:30:25;102218.51;;;4.49;86.07
47811;BME280;33575;52.600;7.318;2023-03-04T02:32:56;102215.39;;;4.34;86.28
47811;BME280;33575;52.600;7.318;2023-03-04T02:35:27;102211.23;;;4.12;87.96
47811;BME280;33575;52.600;7.318;2023-03-04T02:37:58;102204.91;;;4.34;86.95
47811;BME280;33575;52.600;7.318;2023-03-04T02:40:30;102209.16;;;4.32;87.27
47811;BME280;33575;52.600;7.318;2023-03-04T02:43:00;102206.50;;;4.29;87.41
47811;BME280;33575;52.600;7.318;2023-03-04T02:45:35;102203.73;;;4.28;87.93
47811;BME280;33575;52.600;7.318;2023-03-04T02:48:01;102205.30;;;4.25;87.95
47811;BME280;33575;52.600;7.318;2023-03-04T02:50:35;102209.16;;;4.25;88.19
47811;BME280;33575;52.600;7.318;2023-03-04T02:53:03;102207.22;;;4.41;87.84
47811;BME280;33575;52.600;7.318;2023-03-04T02:55:33;102200.63;;;4.43;87.98
47811;BME280;33575;52.600;7.318;2023-03-04T02:58:04;102197.70;;;4.60;87.54
47811;BME280;33575;52.600;7.318;2023-03-04T03:00:35;102198.08;;;4.47;87.74
47811;BME280;33575;52.600;7.318;2023-03-04T03:03:05;102196.81;;;4.74;87.03
47811;BME280;33575;52.600;7.318;2023-03-04T03:05:36;102197.50;;;4.64;87.17
47811;BME280;33575;52.600;7.318;2023-03-04T03:08:07;102198.17;;;4.49;87.32
47811;BME280;33575;52.600;7.318;2023-03-04T03:10:37;102199.68;;;4.37;88.07
47811;BME280;33575;52.600;7.318;2023-03-04T03:13:08;102198.99;;;4.49;87.63
47811;BME280;33575;52.600;7.318;2023-03-04T03:15:39;102197.71;;;4.63;87.41
47811;BME280;33575;52.600;7.318;2023-03-04T03:18:11;102196.43;;;4.57;87.32
47811;BME280;33575;52.600;7.318;2023-03-04T03:20:40;102196.91;;;4.61;87.08
47811;BME280;33575;52.600;7.318;2023-03-04T03:23:11;102193.77;;;4.41;88.08
47811;BME280;33575;52.600;7.318;2023-03-04T03:25:42;102194.07;;;4.39;88.63
47811;BME280;33575;52.600;7.318;2023-03-04T03:28:12;102190.52;;;4.17;89.81
47811;BME280;33575;52.600;7.318;2023-03-04T03:30:43;102188.09;;;4.38;89.32
47811;BME280;33575;52.600;7.318;2023-03-04T03:33:14;102184.10;;;4.18;90.23
47811;BME280;33575;52.600;7.318;2023-03-04T03:35:45;102180.42;;;4.14;91.01
47811;BME280;33575;52.600;7.318;2023-03-04T03:38:15;102181.25;;;4.05;91.30
47811;BME280;33575;52.600;7.318;2023-03-04T03:40:46;102181.44;;;4.32;90.45
47811;BME280;33575;52.600;7.318;2023-03-04T03:43:17;102180.00;;;3.95;92.36
47811;BME280;33575;52.600;7.318;2023-03-04T03:45:47;102175.87;;;3.96;92.33
47811;BME280;33575;52.600;7.318;2023-03-04T03:48:18;102174.75;;;4.13;91.40
47811;BME280;33575;52.600;7.318;2023-03-04T03:50:48;102175.42;;;4.05;91.79
47811;BME280;33575;52.600;7.318;2023-03-04T03:53:19;102172.33;;;4.32;90.44
47811;BME280;33575;52.600;7.318;2023-03-04T03:55:50;102173.35;;;4.22;90.74
47811;BME280;33575;52.600;7.318;2023-03-04T03:58:21;102168.27;;;4.23;90.36
47811;BME280;33575;52.600;7.318;2023-03-04T04:00:52;102165.90;;;4.09;90.65
47811;BME280;33575;52.600;7.318;2023-03-04T04:03:22;102161.91;;;4.29;89.74
47811;BME280;33575;52.600;7.318;2023-03-04T04:05:53;102161.39;;;4.00;91.16
47811;BME280;33575;52.600;7.318;2023-03-04T04:08:24;102157.32;;;3.99;90.98
47811;BME280;33575;52.600;7.318;2023-03-04T04:10:55;102158.37;;;4.03;90.74
47811;BME280;33575;52.600;7.318;2023-03-04T04:13:25;102156.42;;;4.25;90.11
47811;BME280;33575;52.600;7.318;2023-03-04T04:15:56;102158.64;;;4.36;89.68
47811;BME280;33575;52.600;7.318;2023-03-04T04:18:27;102151.73;;;4.42;89.38
47811;BME280;33575;52.600;7.318;2023-03-04T04:20:58;102158.84;;;4.36;89.48
47811;BME280;33575;52.600;7.318;2023-03-04T04:23:29;102152.35;;;4.28;90.28
47811;BME280;33575;52.600;7.318;2023-03-04T04:25:59;102147.90;;;4.45;89.14
47811;BME280;33575;52.600;7.318;2023-03-04T04:28:30;102147.43;;;4.31;89.71
47811;BME280;33575;52.600;7.318;2023-03-04T04:31:01;102147.20;;;4.43;89.58
47811;BME280;33575;52.600;7.318;2023-03-04T04:33:31;102147.04;;;4.48;89.38
47811;BME280;33575;52.600;7.318;2023-03-04T04:36:02;102152.17;;;4.59;88.66
47811;BME280;33575;52.600;7.318;2023-03-04T04:38:33;102150.62;;;4.50;89.28
47811;BME280;33575;52.600;7.318;2023-03-04T04:41:04;102148.95;;;4.46;89.81
47811;BME280;33575;52.600;7.318;2023-03-04T04:43:34;102148.65;;;4.46;89.31
47811;BME280;33575;52.600;7.318;2023-03-04T04:46:05;102150.37;;;4.67;88.67
47811;BME280;33575;52.600;7.318;2023-03-04T04:48:36;102155.09;;;4.69;88.43
47811;BME280;33575;52.600;7.318;2023-03-04T04:51:07;102154.89;;;4.56;89.38
47811;BME280;33575;52.600;7.318;2023-03-04T04:53:37;102158.76;;;4.54;89.29
47811;BME280;33575;52.600;7.318;2023-03-04T04:56:10;102155.48;;;4.46;90.27
47811;BME280;33575;52.600;7.318;2023-03-04T04:58:39;102157.49;;;4.55;89.68
47811;BME280;33575;52.600;7.318;2023-03-04T05:01:10;102158.53;;;4.69;88.76
47811;BME280;33575;52.600;7.318;2023-03-04T05:03:40;102155.28;;;4.68;89.06
47811;BME280;33575;52.600;7.318;2023-03-04T05:06:11;102157.67;;;4.66;88.88
47811;BME280;33575;52.600;7.318;2023-03-04T05:08:42;102157.40;;;4.69;88.93
47811;BME280;33575;52.600;7.318;2023-03-04T05:11:13;102154.94;;;4.69;89.21
47811;BME280;33575;52.600;7.318;2023-03-04T05:13:43;102156.25;;;4.71;88.72
47811;BME280;33575;52.600;7.318;2023-03-04T05:16:14;102154.24;;;4.57;89.96
47811;BME280;33575;52.600;7.318;2023-03-04T05:18:45;102153.59;;;4.71;89.00
47811;BME280;33575;52.600;7.318;2023-03-04T05:21:15;102150.05;;;4.34;90.84
47811;BME280;33575;52.600;7.318;2023-03-04T05:23:46;102148.61;;;4.54;89.77
47811;BME280;33575;52.600;7.318;2023-03-04T05:26:17;102150.45;;;4.62;89.22
47811;BME280;33575;52.600;7.318;2023-03-04T05:28:48;102143.06;;;4.48;89.99
47811;BME280;33575;52.600;7.318;2023-03-04T05:31:18;102144.64;;;4.57;89.32
47811;BME280;33575;52.600;7.318;2023-03-04T05:33:49;102145.17;;;4.52;89.74
47811;BME280;33575;52.600;7.318;2023-03-04T05:36:20;102139.97;;;4.62;89.05
47811;BME280;33575;52.600;7.318;2023-03-04T05:38:50;102141.91;;;4.63;89.38
47811;BME280;33575;52.600;7.318;2023-03-04T05:41:21;102133.59;;;4.63;89.00
47811;BME280;33575;52.600;7.318;2023-03-04T05:43:52;102130.30;;;4.70;88.68
47811;BME280;33575;52.600;7.318;2023-03-04T05:46:23;102130.60;;;4.64;89.15
47811;BME280;33575;52.600;7.318;2023-03-04T05:48:54;102135.14;;;4.60;89.11
47811;BME280;33575;52.600;7.318;2023-03-04T05:51:24;102137.35;;;4.55;89.84
47811;BME280;33575;52.600;7.318;2023-03-04T05:53:55;102135.03;;;4.53;89.65
47811;BME280;33575;52.600;7.318;2023-03-04T05:56:26;102129.20;;;4.61;89.29
47811;BME280;33575;52.600;7.318;2023-03-04T05:58:57;102129.25;;;4.47;90.53
47811;BME280;33575;52.600;7.318;2023-03-04T06:01:27;102126.44;;;4.60;89.33
47811;BME280;33575;52.600;7.318;2023-03-04T06:03:58;102123.22;;;4.58;89.50
47811;BME280;33575;52.600;7.318;2023-03-04T06:06:29;102128.48;;;4.53;89.93
47811;BME280;33575;52.600;7.318;2023-03-04T06:08:59;102130.12;;;4.60;89.29
47811;BME280;33575;52.600;7.318;2023-03-04T06:11:30;102128.21;;;4.60;89.75
47811;BME280;33575;52.600;7.318;2023-03-04T06:14:01;102132.53;;;4.62;89.50
47811;BME280;33575;52.600;7.318;2023-03-04T06:16:32;102130.44;;;4.41;91.47
47811;BME280;33575;52.600;7.318;2023-03-04T06:19:02;102136.52;;;4.53;90.37
47811;BME280;33575;52.600;7.318;2023-03-04T06:21:33;102134.79;;;4.62;89.98
47811;BME280;33575;52.600;7.318;2023-03-04T06:24:04;102136.88;;;4.53;90.24
47811;BME280;33575;52.600;7.318;2023-03-04T06:26:35;102134.59;;;4.66;89.89
47811;BME280;33575;52.600;7.318;2023-03-04T06:29:06;102131.30;;;4.71;89.46
47811;BME280;33575;52.600;7.318;2023-03-04T06:31:36;102134.87;;;4.71;89.49
47811;BME280;33575;52.600;7.318;2023-03-04T06:34:07;102134.97;;;4.68;89.93
47811;BME280;33575;52.600;7.318;2023-03-04T06:36:38;102139.41;;;4.45;91.44
47811;BME280;33575;52.600;7.318;2023-03-04T06:39:09;102140.32;;;4.52;91.23
47811;BME280;33575;52.600;7.318;2023-03-04T06:41:39;102141.76;;;4.49;91.85
47811;BME280;33575;52.600;7.318;2023-03-04T06:44:10;102147.80;;;4.57;91.49
47811;BME280;33575;52.600;7.318;2023-03-04T06:46:41;102149.25;;;4.52;92.27
47811;BME280;33575;52.600;7.318;2023-03-04T06:49:11;102151.46;;;4.51;92.37
47811;BME280;33575;52.600;7.318;2023-03-04T06:51:42;102155.16;;;4.32;94.99
47811;BME280;33575;52.600;7.318;2023-03-04T06:54:13;102156.72;;;4.45;93.92
47811;BME280;33575;52.600;7.318;2023-03-04T06:56:43;102157.92;;;4.40;94.32
47811;BME280;33575;52.600;7.318;2023-03-04T06:59:14;102161.50;;;4.43;93.76
47811;BME280;33575;52.600;7.318;2023-03-04T07:01:45;102162.83;;;4.37;95.23
47811;BME280;33575;52.600;7.318;2023-03-04T07:04:15;102159.69;;;4.39;94.57
47811;BME280;33575;52.600;7.318;2023-03-04T07:06:46;102158.03;;;4.46;94.22
47811;BME280;33575;52.600;7.318;2023-03-04T07:09:17;102159.13;;;4.47;94.58
47811;BME280;33575;52.600;7.318;2023-03-04T07:11:48;102161.56;;;4.48;95.23
47811;BME280;33575;52.600;7.318;2023-03-04T07:14:19;102162.21;;;4.56;94.23
47811;BME280;33575;52.600;7.318;2023-03-04T07:16:49;102158.86;;;4.48;96.05
47811;BME280;33575;52.600;7.318;2023-03-04T07:19:20;102160.53;;;4.56;95.04
47811;BME280;33575;52.600;7.318;2023-03-04T07:21:50;102161.21;;;4.53;95.11
47811;BME280;33575;52.600;7.318;2023-03-04T07:24:21;102160.58;;;4.50;95.47
47811;BME280;33575;52.600;7.318;2023-03-04T07:26:52;102163.02;;;4.53;95.31
47811;BME280;33575;52.600;7.318;2023-03-04T07:29:23;102165.79;;;4.51;96.27
47811;BME280;33575;52.600;7.318;2023-03-04T07:31:54;102156.57;;;4.38;98.21
47811;BME280;33575;52.600;7.318;2023-03-04T07:34:24;102159.35;;;4.18;99.13
47811;BME280;33575;52.600;7.318;2023-03-04T07:36:55;102162.23;;;4.39;97.51
47811;BME280;33575;52.600;7.318;2023-03-04T07:39:26;102159.52;;;4.33;98.61
47811;BME280;33575;52.600;7.318;2023-03-04T07:41:56;102162.89;;;4.28;99.68
47811;BME280;33575;52.600;7.318;2023-03-04T07:44:27;102159.94;;;4.23;99.81
47811;BME280;33575;52.600;7.318;2023-03-04T07:46:58;102161.87;;;4.39;98.74
47811;BME280;33575;52.600;7.318;2023-03-04T07:49:28;102164.37;;;4.35;99.79
47811;BME280;33575;52.600;7.318;2023-03-04T07:52:02;102162.35;;;4.46;98.86
47811;BME280;33575;52.600;7.318;2023-03-04T07:54:30;102160.19;;;4.45;99.74
47811;BME280;33575;52.600;7.318;2023-03-04T07:57:01;102161.49;;;4.49;99.15
47811;BME280;33575;52.600;7.318;2023-03-04T07:59:31;102162.68;;;4.36;100.00
47811;BME280;33575;52.600;7.318;2023-03-04T08:02:02;102163.42;;;4.53;99.07
47811;BME280;33575;52.600;7.318;2023-03-04T08:04:33;102165.87;;;4.48;99.99
47811;BME280;33575;52.600;7.318;2023-03-04T08:07:04;102168.12;;;4.37;100.00
47811;BME280;33575;52.600;7.318;2023-03-04T08:09:34;102166.01;;;4.25;100.00
47811;BME280;33575;52.600;7.318;2023-03-04T08:12:05;102174.64;;;4.27;100.00
47811;BME280;33575;52.600;7.318;2023-03-04T08:14:36;102170.88;;;4.38;100.00
47811;BME280;33575;52.600;7.318;2023-03-04T08:17:07;102174.24;;;4.34;100.00
47811;BME280;33575;52.600;7.318;2023-03-04T08:19:37;102176.58;;;4.53;100.00
47811;BME280;33575;52.600;7.318;2023-03-04T08:22:08;102174.93;;;4.45;100.00
47811;BME280;33575;52.600;7.318;2023-03-04T08:24:38;102173.02;;;4.34;100.00
47811;BME280;33575;52.600;7.318;2023-03-04T08:27:09;102174.15;;;4.40;99.53
47811;BME280;33575;52.600;7.318;2023-03-04T08:29:40;102174.87;;;4.50;100.00
47811;BME280;33575;52.600;7.318;2023-03-04T08:32:11;102172.65;;;4.49;100.00
47811;BME280;33575;52.600;7.318;2023-03-04T08:34:41;102170.76;;;4.58;100.00
47811;BME280;33575;52.600;7.318;2023-03-04T08:37:12;102171.67;;;4.70;100.00
47811;BME280;33575;52.600;7.318;2023-03-04T08:39:43;102169.53;;;4.68;100.00
47811;BME280;33575;52.600;7.318;2023-03-04T08:42:14;102165.85;;;4.68;100.00
47811;BME280;33575;52.600;7.318;2023-03-04T08:44:45;102172.52;;;4.78;99.51
47811;BME280;33575;52.600;7.318;2023-03-04T08:47:15;102173.76;;;4.85;100.00
47811;BME280;33575;52.600;7.318;2023-03-04T08:49:46;102177.93;;;4.78;100.00
47811;BME280;33575;52.600;7.318;2023-03-04T08:52:17;102182.34;;;4.54;100.00
47811;BME280;33575;52.600;7.318;2023-03-04T08:54:48;102184.91;;;4.61;100.00
47811;BME280;33575;52.600;7.318;2023-03-04T08:57:18;102185.15;;;4.72;100.00
47811;BME280;33575;52.600;7.318;2023-03-04T08:59:49;102190.67;;;4.50;100.00
47811;BME280;33575;52.600;7.318;2023-03-04T09:02:20;102181.44;;;4.15;100.00
47811;BME280;33575;52.600;7.318;2023-03-04T09:04:51;102180.65;;;4.42;100.00
47811;BME280;33575;52.600;7.318;2023-03-04T09:07:21;102179.10;;;4.46;100.00
47811;BME280;33575;52.600;7.318;2023-03-04T09:09:52;102177.00;;;4.43;100.00
47811;BME280;33575;52.600;7.318;2023-03-04T09:12:22;102178.71;;;4.60;100.00
47811;BME280;33575;52.600;7.318;2023-03-04T09:14:57;102180.26;;;4.84;100.00
47811;BME280;33575;52.600;7.318;2023-03-04T09:17:23;102178.84;;;4.73;100.00
47811;BME280;33575;52.600;7.318;2023-03-04T09:19:53;102180.72;;;4.67;100.00
47811;BME280;33575;52.600;7.318;2023-03-04T09:22:24;102182.65;;;4.85;100.00
47811;BME280;33575;52.600;7.318;2023-03-04T09:24:55;102185.45;;;4.68;100.00
47811;BME280;33575;52.600;7.318;2023-03-04T09:27:26;102183.09;;;4.64;100.00
47811;BME280;33575;52.600;7.318;2023-03-04T09:29:56;102187.79;;;4.90;100.00
47811;BME280;33575;52.600;7.318;2023-03-04T09:32:26;102186.32;;;4.76;100.00
47811;BME280;33575;52.600;7.318;2023-03-04T09:34:57;102189.22;;;4.85;100.00
47811;BME280;33575;52.600;7.318;2023-03-04T09:37:28;102191.74;;;4.88;100.00
47811;BME280;33575;52.600;7.318;2023-03-04T09:39:59;102191.45;;;4.81;100.00
47811;BME280;33575;52.600;7.318;2023-03-04T09:42:35;102194.63;;;4.61;100.00
47811;BME280;33575;52.600;7.318;2023-03-04T09:45:01;102191.65;;;4.71;100.00
47811;BME280;33575;52.600;7.318;2023-03-04T09:47:33;102189.96;;;4.74;100.00
47811;BME280;33575;52.600;7.318;2023-03-04T09:50:05;102185.89;;;4.80;100.00
47811;BME280;33575;52.600;7.318;2023-03-04T09:52:43;102184.45;;;4.81;100.00
47811;BME280;33575;52.600;7.318;2023-03-04T09:55:14;102181.94;;;5.06;100.00
47811;BME280;33575;52.600;7.318;2023-03-04T09:57:43;102186.06;;;4.91;100.00
47811;BME280;33575;52.600;7.318;2023-03-04T10:00:13;102184.74;;;5.10;100.00
47811;BME280;33575;52.600;7.318;2023-03-04T10:02:44;102184.56;;;4.99;100.00
47811;BME280;33575;52.600;7.318;2023-03-04T10:05:06;102186.29;;;4.84;100.00
47811;BME280;33575;52.600;7.318;2023-03-04T10:07:40;102179.27;;;5.07;100.00
47811;BME280;33575;52.600;7.318;2023-03-04T10:10:12;102178.73;;;4.87;100.00
47811;BME280;33575;52.600;7.318;2023-03-04T10:12:39;102172.80;;;5.13;99.88
47811;BME280;33575;52.600;7.318;2023-03-04T10:15:20;102180.45;;;4.85;100.00
47811;BME280;33575;52.600;7.318;2023-03-04T10:17:43;102175.59;;;4.87;100.00
47811;BME280;33575;52.600;7.318;2023-03-04T10:20:14;102175.00;;;5.12;100.00
47811;BME280;33575;52.600;7.318;2023-03-04T10:22:43;102176.81;;;5.26;100.00
47811;BME280;33575;52.600;7.318;2023-03-04T10:25:17;102168.49;;;5.08;99.20
47811;BME280;33575;52.600;7.318;2023-03-04T10:27:42;102170.57;;;5.15;98.22
47811;BME280;33575;52.600;7.318;2023-03-04T10:30:21;102175.52;;;5.11;96.79
47811;BME280;33575;52.600;7.318;2023-03-04T10:32:45;102175.19;;;5.07;97.26
47811;BME280;33575;52.600;7.318;2023-03-04T10:35:14;102174.22;;;5.26;97.60
47811;BME280;33575;52.600;7.318;2023-03-04T10:37:46;102176.06;;;5.10;97.87
47811;BME280;33575;52.600;7.318;2023-03-04T10:40:20;102184.57;;;4.88;98.41
47811;BME280;33575;52.600;7.318;2023-03-04T10:42:47;102179.47;;;4.75;98.21
47811;BME280;33575;52.600;7.318;2023-03-04T10:45:23;102184.79;;;4.80;99.87
47811;BME280;33575;52.600;7.318;2023-03-04T10:47:52;102182.10;;;4.55;100.00
47811;BME280;33575;52.600;7.318;2023-03-04T10:50:22;102184.56;;;4.62;100.00
47811;BME280;33575;52.600;7.318;2023-03-04T10:52:49;102187.24;;;4.72;100.00
47811;BME280;33575;52.600;7.318;2023-03-04T10:55:22;102179.62;;;4.67;100.00
47811;BME280;33575;52.600;7.318;2023-03-04T10:57:53;102182.24;;;4.79;100.00
47811;BME280;33575;52.600;7.318;2023-03-04T11:00:26;102177.35;;;4.79;100.00
47811;BME280;33575;52.600;7.318;2023-03-04T11:03:22;102174.60;;;4.75;100.00
47811;BME280;33575;52.600;7.318;2023-03-04T11:05:23;102176.33;;;4.70;100.00
47811;BME280;33575;52.600;7.318;2023-03-04T11:07:59;102168.92;;;4.71;100.00
47811;BME280;33575;52.600;7.318;2023-03-04T11:10:24;102165.40;;;4.85;99.42
47811;BME280;33575;52.600;7.318;2023-03-04T11:12:58;102166.05;;;5.05;98.38
47811;BME280;33575;52.600;7.318;2023-03-04T11:15:26;102160.30;;;5.07;97.27
47811;BME280;33575;52.600;7.318;2023-03-04T11:17:58;102162.45;;;5.06;96.71
47811;BME280;33575;52.600;7.318;2023-03-04T11:20:29;102162.11;;;4.86;96.08
47811;BME280;33575;52.600;7.318;2023-03-04T11:23:00;102164.32;;;4.91;94.82
47811;BME280;33575;52.600;7.318;2023-03-04T11:25:30;102157.02;;;5.03;95.28
47811;BME280;33575;52.600;7.318;2023-03-04T11:27:59;102151.46;;;5.14;95.35
47811;BME280;33575;52.600;7.318;2023-03-04T11:30:33;102151.46;;;5.07;93.24
47811;BME280;33575;52.600;7.318;2023-03-04T11:33:07;102150.22;;;5.08;93.22
47811;BME280;33575;52.600;7.318;2023-03-04T11:35:33;102149.63;;;5.22;93.52
47811;BME280;33575;52.600;7.318;2023-03-04T11:38:04;102147.08;;;4.98;93.74
47811;BME280;33575;52.600;7.318;2023-03-04T11:40:35;102145.19;;;4.90;93.68
47811;BME280;33575;52.600;7.318;2023-03-04T11:43:05;102137.54;;;5.02;94.59
47811;BME280;33575;52.600;7.318;2023-03-04T11:45:49;102136.83;;;4.85;94.09
47811;BME280;33575;52.600;7.318;2023-03-04T11:48:07;102142.56;;;4.75;95.46
47811;BME280;33575;52.600;7.318;2023-03-04T11:50:42;102141.05;;;4.69;95.30
47811;BME280;33575;52.600;7.318;2023-03-04T11:53:17;102136.79;;;4.87;94.21
47811;BME280;33575;52.600;7.318;2023-03-04T11:55:40;102141.25;;;4.69;93.85
47811;BME280;33575;52.600;7.318;2023-03-04T11:58:24;102155.41;;;4.62;94.81
47811;BME280;33575;52.600;7.318;2023-03-04T12:00:39;102151.35;;;4.41;96.79
47811;BME280;33575;52.600;7.318;2023-03-04T12:03:23;102144.22;;;4.07;98.19
47811;BME280;33575;52.600;7.318;2023-03-04T12:05:45;102137.69;;;4.22;96.55
47811;BME280;33575;52.600;7.318;2023-03-04T12:08:20;102129.51;;;4.13;97.37
47811;BME280;33575;52.600;7.318;2023-03-04T12:10:44;102134.90;;;3.97;97.71
47811;BME280;33575;52.600;7.318;2023-03-04T12:15:48;102129.64;;;4.31;99.00
47811;BME280;33575;52.600;7.318;2023-03-04T12:18:25;102129.67;;;4.41;97.07
47811;BME280;33575;52.600;7.318;2023-03-04T12:20:52;102125.47;;;4.46;96.63
47811;BME280;33575;52.600;7.318;2023-03-04T12:23:25;102121.53;;;4.68;96.81
47811;BME280;33575;52.600;7.318;2023-03-04T12:25:49;102118.20;;;4.75;95.81
47811;BME280;33575;52.600;7.318;2023-03-04T12:28:24;102114.69;;;4.78;95.11
47811;BME280;33575;52.600;7.318;2023-03-04T12:30:57;102105.20;;;5.10;94.35
47811;BME280;33575;52.600;7.318;2023-03-04T12:33:20;102102.49;;;5.26;93.61
47811;BME280;33575;52.600;7.318;2023-03-04T12:35:52;102108.38;;;4.97;89.69
47811;BME280;33575;52.600;7.318;2023-03-04T12:38:25;102110.75;;;4.77;89.58
47811;BME280;33575;52.600;7.318;2023-03-04T12:40:53;102108.83;;;4.74;90.02
47811;BME280;33575;52.600;7.318;2023-03-04T12:43:29;102104.69;;;4.83;90.15
47811;BME280;33575;52.600;7.318;2023-03-04T12:45:57;102103.80;;;4.94;90.00
47811;BME280;33575;52.600;7.318;2023-03-04T12:48:28;102099.35;;;4.85;89.52
47811;BME280;33575;52.600;7.318;2023-03-04T12:50:58;102102.61;;;4.87;89.30
47811;BME280;33575;52.600;7.318;2023-03-04T12:53:26;102094.38;;;4.81;87.70
47811;BME280;33575;52.600;7.318;2023-03-04T12:55:53;102090.39;;;5.02;88.35
47811;BME280;33575;52.600;7.318;2023-03-04T12:58:25;102086.62;;;4.79;86.07
47811;BME280;33575;52.600;7.318;2023-03-04T13:00:58;102090.67;;;4.67;84.86
47811;BME280;33575;52.600;7.318;2023-03-04T13:03:30;102090.90;;;4.86;86.57
47811;BME280;33575;52.600;7.318;2023-03-04T13:06:04;102092.19;;;4.61;86.41
47811;BME280;33575;52.600;7.318;2023-03-04T13:08:30;102091.34;;;4.39;87.55
47811;BME280;33575;52.600;7.318;2023-03-04T13:11:01;102109.18;;;4.43;89.12
47811;BME280;33575;52.600;7.318;2023-03-04T13:13:33;102107.01;;;4.38;91.06
47811;BME280;33575;52.600;7.318;2023-03-04T13:16:01;102102.01;;;4.22;92.58
47811;BME280;33575;52.600;7.318;2023-03-04T13:18:30;102096.19;;;4.22;93.90